Time;durP1;ratioP1;P1;durP2;ratioP2;P2;SDS_P1;SDS_P2;PMS_P1;PMS_P2;Temp;Humidity;BMP_temperature;BMP_pressure;BME280_temperature;BME280_humidity;BME280_pressure;Samples;Min_cycle;Max_cycle;Signal;HPM_P1;HPM_P2
2021/07/25 00:00:16;;;;;;;12.85;5.93;;;17.90;63.60;;;;;;5034210;28;20025;-84
2021/07/25 00:02:42;;;;;;;6.88;5.20;;;17.90;63.70;;;;;;5053048;28;20017;-82
2021/07/25 00:05:09;;;;;;;8.25;5.50;;;17.90;63.40;;;;;;5051792;28;20226;-83
2021/07/25 00:07:35;;;;;;;10.65;5.28;;;17.90;63.60;;;;;;5052058;28;20406;-83
2021/07/25 00:10:03;;;;;;;6.97;5.40;;;17.90;63.50;;;;;;5052130;28;20079;-84
2021/07/25 00:12:29;;;;;;;9.70;4.97;;;17.90;63.60;;;;;;5052144;28;20017;-84
2021/07/25 00:14:54;;;;;;;7.82;4.93;;;17.90;63.50;;;;;;5054519;28;20512;-85
2021/07/25 00:17:20;;;;;;;7.80;5.13;;;18.00;63.60;;;;;;5044789;28;20013;-82
2021/07/25 00:19:46;;;;;;;8.77;5.50;;;18.00;63.50;;;;;;5055787;28;20371;-82
2021/07/25 00:22:13;;;;;;;8.50;4.93;;;18.10;63.60;;;;;;5055196;28;20474;-83
2021/07/25 00:24:47;;;;;;;6.45;5.00;;;18.10;62.90;;;;;;5055625;28;20459;-83
2021/07/25 00:27:13;;;;;;;7.03;5.40;;;18.10;62.60;;;;;;5053667;28;20089;-81
2021/07/25 00:29:39;;;;;;;7.63;5.20;;;18.10;62.90;;;;;;5047484;28;20095;-82
2021/07/25 00:32:08;;;;;;;7.05;5.30;;;18.20;63.10;;;;;;5046318;28;20024;-83
2021/07/25 00:34:34;;;;;;;9.32;5.00;;;18.20;63.20;;;;;;5055269;28;20016;-83
2021/07/25 00:37:01;;;;;;;8.13;5.40;;;18.20;63.20;;;;;;5037378;28;20021;-85
2021/07/25 00:39:27;;;;;;;15.02;5.63;;;18.20;63.20;;;;;;5055407;28;20511;-83
2021/07/25 00:41:54;;;;;;;9.20;5.38;;;18.20;63.10;;;;;;5054909;28;20021;-82
2021/07/25 00:44:20;;;;;;;7.93;5.37;;;18.20;63.10;;;;;;5054941;28;20021;-84
2021/07/25 00:46:59;;;;;;;9.13;5.43;;;18.20;63.10;;;;;;5037144;28;20028;-83
2021/07/25 00:49:26;;;;;;;5.95;4.88;;;18.30;63.10;;;;;;5054691;28;20090;-84
2021/07/25 00:51:53;;;;;;;6.40;5.00;;;18.30;62.80;;;;;;5055180;28;20044;-84
2021/07/25 00:54:20;;;;;;;7.97;5.45;;;18.20;62.60;;;;;;5055125;28;20036;-84
2021/07/25 00:56:46;;;;;;;5.80;4.90;;;18.30;62.70;;;;;;5055146;28;20028;-82
2021/07/25 00:59:12;;;;;;;9.02;5.75;;;18.30;62.90;;;;;;5054888;28;20492;-83
2021/07/25 01:01:38;;;;;;;11.70;5.40;;;18.30;63.40;;;;;;5054869;28;20029;-84
2021/07/25 01:04:23;;;;;;;9.75;5.35;;;18.30;63.40;;;;;;5055089;28;20028;-83
2021/07/25 01:06:57;;;;;;;10.07;5.13;;;18.30;63.50;;;;;;5042341;28;20022;-84
2021/07/25 01:09:39;;;;;;;5.97;4.57;;;18.30;63.40;;;;;;5055099;28;20032;-84
2021/07/25 01:12:06;;;;;;;11.32;5.22;;;18.30;63.40;;;;;;5054970;28;20013;-83
2021/07/25 01:14:35;;;;;;;10.15;5.93;;;18.30;63.60;;;;;;5036435;28;20025;-83
2021/07/25 01:17:30;;;;;;;12.63;4.47;;;18.30;63.80;;;;;;5042717;28;20025;-83
2021/07/25 01:19:58;;;;;;;6.85;4.80;;;18.30;63.60;;;;;;5054876;28;20021;-84
2021/07/25 01:22:24;;;;;;;;;;;18.30;63.70;;;;;;5042320;28;20031;-84
2021/07/25 01:24:50;;;;;;;10.50;5.53;;;18.30;63.30;;;;;;5054815;28;20279;-84
2021/07/25 01:27:31;;;;;;;9.88;4.38;;;18.30;63.50;;;;;;5036648;28;20056;-84
2021/07/25 01:29:59;;;;;;;6.18;5.10;;;18.30;63.50;;;;;;5054797;28;20013;-83
2021/07/25 01:32:28;;;;;;;16.17;5.47;;;18.30;62.90;;;;;;5054628;28;20071;-83
2021/07/25 01:34:57;;;;;;;13.02;5.22;;;18.40;62.90;;;;;;5054849;28;20438;-83
2021/07/25 01:37:28;;;;;;;14.00;6.40;;;18.40;62.70;;;;;;5037214;28;20029;-83
2021/07/25 01:39:54;;;;;;;12.57;5.25;;;18.40;62.90;;;;;;5054356;28;20017;-86
2021/07/25 01:42:27;;;;;;;10.27;5.60;;;18.40;62.80;;;;;;5061337;28;20055;-82
2021/07/25 01:44:53;;;;;;;9.65;6.10;;;18.40;62.90;;;;;;5066379;28;20081;-83
2021/07/25 01:47:19;;;;;;;15.10;6.30;;;18.40;62.90;;;;;;5063765;28;20060;-84
2021/07/25 01:49:45;;;;;;;14.10;6.30;;;18.40;62.90;;;;;;5062160;28;20021;-84
2021/07/25 01:52:11;;;;;;;8.90;5.65;;;18.40;62.90;;;;;;5055955;28;20021;-83
2021/07/25 01:54:36;;;;;;;12.70;5.97;;;18.50;63.00;;;;;;5054599;28;20490;-82
2021/07/25 01:57:02;;;;;;;12.57;6.32;;;18.50;62.90;;;;;;5054157;28;20070;-83
2021/07/25 01:59:28;;;;;;;12.32;5.28;;;18.50;63.00;;;;;;5054116;28;20101;-83
2021/07/25 02:01:54;;;;;;;15.93;6.10;;;18.50;63.20;;;;;;5054350;28;20437;-84
2021/07/25 02:04:19;;;;;;;11.38;6.53;;;18.50;63.30;;;;;;5053060;28;20064;-84
2021/07/25 02:06:45;;;;;;;12.70;6.03;;;18.50;63.20;;;;;;5054004;28;20127;-82
2021/07/25 02:09:12;;;;;;;14.32;5.20;;;18.50;63.10;;;;;;5053869;28;20429;-83
2021/07/25 02:11:38;;;;;;;9.93;5.60;;;18.60;63.30;;;;;;5053942;28;20020;-84
2021/07/25 02:14:04;;;;;;;14.73;5.88;;;18.60;63.50;;;;;;5053710;28;20025;-82
2021/07/25 02:16:30;;;;;;;12.50;5.75;;;18.60;63.40;;;;;;5035444;28;20040;-82
2021/07/25 02:18:56;;;;;;;11.77;6.15;;;18.60;63.50;;;;;;5053798;28;20021;-83
2021/07/25 02:21:22;;;;;;;13.07;6.10;;;18.60;63.50;;;;;;5053552;28;20021;-83
2021/07/25 02:23:48;;;;;;;17.83;7.10;;;18.70;63.60;;;;;;5035842;28;20084;-83
2021/07/25 02:26:14;;;;;;;11.50;6.22;;;18.60;63.90;;;;;;5053393;28;20020;-83
2021/07/25 02:28:40;;;;;;;12.23;6.63;;;18.70;64.00;;;;;;5053280;28;20079;-83
2021/07/25 02:31:05;;;;;;;12.65;5.88;;;18.70;63.90;;;;;;5053644;28;20406;-83
2021/07/25 02:33:31;;;;;;;12.05;5.78;;;18.70;64.10;;;;;;5053165;28;20441;-83
2021/07/25 02:35:57;;;;;;;15.23;5.93;;;18.70;64.20;;;;;;5053245;28;20033;-83
2021/07/25 02:38:23;;;;;;;15.32;6.40;;;18.70;64.20;;;;;;5052832;28;20047;-85
2021/07/25 02:40:49;;;;;;;12.88;6.13;;;18.80;64.30;;;;;;5052077;28;20033;-84
2021/07/25 02:43:15;;;;;;;10.90;5.50;;;18.80;63.90;;;;;;5053243;28;20028;-82
2021/07/25 02:45:41;;;;;;;11.15;6.55;;;18.80;63.80;;;;;;5054085;28;20021;-84
2021/07/25 02:48:07;;;;;;;12.98;6.38;;;18.90;64.10;;;;;;5053664;28;20045;-84
2021/07/25 02:50:33;;;;;;;17.40;6.90;;;18.90;64.10;;;;;;5054207;28;20028;-83
2021/07/25 02:52:58;;;;;;;11.98;6.18;;;18.90;63.00;;;;;;5054596;28;20029;-83
2021/07/25 02:55:24;;;;;;;14.27;6.40;;;18.90;62.80;;;;;;5036563;28;20029;-83
2021/07/25 02:57:50;;;;;;;15.77;6.15;;;18.80;62.90;;;;;;5053420;28;20064;-83
2021/07/25 03:00:16;;;;;;;13.02;5.70;;;18.80;63.10;;;;;;5053101;28;20032;-82
2021/07/25 03:02:42;;;;;;;10.98;6.70;;;18.90;63.10;;;;;;5053154;28;20122;-83
2021/07/25 03:05:09;;;;;;;10.73;6.47;;;18.90;62.80;;;;;;5053251;28;20036;-84
2021/07/25 03:07:34;;;;;;;18.08;6.82;;;18.90;62.70;;;;;;5052911;28;20382;-83
2021/07/25 03:10:00;;;;;;;14.98;7.15;;;19.00;62.60;;;;;;5053598;28;20025;-83
2021/07/25 03:12:26;;;;;;;12.48;7.10;;;19.00;62.70;;;;;;5053049;28;20026;-83
2021/07/25 03:14:52;;;;;;;16.10;7.75;;;19.00;62.50;;;;;;5053073;28;20389;-84
2021/07/25 03:17:18;;;;;;;16.65;7.63;;;19.10;62.50;;;;;;5052791;28;20021;-83
2021/07/25 03:19:43;;;;;;;15.63;7.63;;;19.10;62.50;;;;;;5053521;28;20025;-82
2021/07/25 03:22:10;;;;;;;12.27;7.72;;;19.10;62.10;;;;;;5053179;28;20103;-85
2021/07/25 03:24:37;;;;;;;10.60;6.87;;;19.10;62.10;;;;;;5034758;28;20442;-83
2021/07/25 03:27:03;;;;;;;19.97;7.23;;;19.10;61.50;;;;;;5052836;28;20265;-83
2021/07/25 03:29:29;;;;;;;18.05;8.23;;;19.20;61.20;;;;;;5052896;28;20410;-83
2021/07/25 03:31:55;;;;;;;16.85;7.68;;;19.20;61.40;;;;;;5053146;28;20013;-82
2021/07/25 03:34:21;;;;;;;15.52;8.13;;;19.30;61.50;;;;;;5052369;28;20078;-84
2021/07/25 03:36:47;;;;;;;18.13;7.03;;;19.40;61.70;;;;;;5052829;28;20036;-83
2021/07/25 03:39:15;;;;;;;15.02;7.57;;;19.50;60.80;;;;;;5052647;28;20021;-83
2021/07/25 03:41:41;;;;;;;14.55;8.27;;;19.60;60.50;;;;;;5052196;28;20013;-83
2021/07/25 03:44:07;;;;;;;16.58;7.88;;;19.70;60.40;;;;;;5052465;28;20478;-82
2021/07/25 03:46:33;;;;;;;12.93;7.13;;;19.70;60.00;;;;;;5052356;28;20372;-83
2021/07/25 03:48:59;;;;;;;12.23;6.93;;;19.70;59.00;;;;;;5055495;28;20060;-82
2021/07/25 03:51:26;;;;;;;14.68;7.95;;;19.70;58.80;;;;;;5056640;28;20098;-83
2021/07/25 03:53:52;;;;;;;13.25;7.53;;;19.80;59.00;;;;;;5056317;28;20017;-83
2021/07/25 03:56:22;;;;;;;13.48;7.30;;;19.80;59.10;;;;;;5056464;28;20040;-83
2021/07/25 03:58:48;;;;;;;20.20;8.63;;;19.90;58.80;;;;;;5038770;28;20075;-83
2021/07/25 04:01:14;;;;;;;16.08;7.70;;;20.00;58.70;;;;;;5057039;28;20082;-84
2021/07/25 04:03:40;;;;;;;18.25;7.07;;;20.10;58.00;;;;;;5056847;28;20025;-83
2021/07/25 04:06:06;;;;;;;13.05;7.40;;;20.10;58.00;;;;;;5058382;28;20043;-84
2021/07/25 04:08:31;;;;;;;19.27;7.25;;;20.00;58.10;;;;;;5059396;28;20029;-84
2021/07/25 04:10:57;;;;;;;14.68;8.00;;;20.00;57.60;;;;;;5056422;28;20025;-84
2021/07/25 04:13:23;;;;;;;19.02;7.55;;;20.00;58.00;;;;;;5038667;28;20497;-84
2021/07/25 04:15:49;;;;;;;11.77;7.45;;;20.00;57.80;;;;;;5056280;28;20036;-83
2021/07/25 04:18:15;;;;;;;13.02;6.35;;;20.10;57.00;;;;;;5056464;28;20076;-83
2021/07/25 04:20:41;;;;;;;11.80;5.95;;;20.20;56.40;;;;;;5056619;28;20024;-83
2021/07/25 04:23:07;;;;;;;11.23;6.32;;;20.30;56.40;;;;;;5056138;28;20057;-83
2021/07/25 04:25:34;;;;;;;15.20;7.00;;;20.40;56.70;;;;;;5056390;28;20485;-83
2021/07/25 04:28:01;;;;;;;11.63;6.72;;;20.50;55.80;;;;;;5055873;28;20489;-84
2021/07/25 04:30:28;;;;;;;15.88;7.25;;;20.70;55.90;;;;;;5056059;28;20025;-83
2021/07/25 04:32:55;;;;;;;13.00;6.45;;;20.80;55.30;;;;;;5055776;28;20094;-81
2021/07/25 04:35:21;;;;;;;10.90;6.67;;;20.80;55.30;;;;;;5056856;28;20036;-82
2021/07/25 04:37:49;;;;;;;16.20;7.22;;;21.00;54.90;;;;;;5066705;28;20262;-84
2021/07/25 04:40:15;;;;;;;;;;;21.00;55.10;;;;;;5055485;28;20501;-83
2021/07/25 04:42:47;;;;;;;16.57;7.03;;;21.10;55.30;;;;;;5055828;28;19904;-82
2021/07/25 04:45:17;;;;;;;15.05;8.10;;;21.20;54.90;;;;;;5055657;28;20331;-83
2021/07/25 04:48:07;;;;;;;15.05;7.15;;;21.30;54.60;;;;;;5055215;28;20047;-82
2021/07/25 04:50:41;;;;;;;17.33;6.70;;;21.30;54.50;;;;;;5055246;28;20017;-81
2021/07/25 04:53:31;;;;;;;15.20;6.95;;;21.40;54.50;;;;;;5055016;28;20505;-80
2021/07/25 04:55:59;;;;;;;13.88;8.02;;;21.60;54.20;;;;;;5055069;28;20095;-81
2021/07/25 04:58:33;;;;;;;16.98;7.57;;;21.60;54.30;;;;;;5055113;28;20355;-81
2021/07/25 05:01:02;;;;;;;11.90;6.55;;;21.70;53.60;;;;;;5055923;28;20029;-83
2021/07/25 05:03:32;;;;;;;12.65;7.45;;;21.80;53.10;;;;;;5056946;28;20025;-83
2021/07/25 05:05:58;;;;;;;11.95;6.82;;;22.00;53.00;;;;;;5055405;28;20021;-82
2021/07/25 05:08:24;;;;;;;14.18;6.72;;;22.10;52.60;;;;;;5055256;28;20024;-83
2021/07/25 05:10:58;;;;;;;10.77;5.40;;;22.20;52.10;;;;;;5054920;28;20067;-82
2021/07/25 05:13:26;;;;;;;13.00;6.00;;;22.20;52.00;;;;;;5036730;28;20082;-84
2021/07/25 05:15:52;;;;;;;;;;;22.20;52.20;;;;;;5037850;28;20057;-84
2021/07/25 05:18:36;;;;;;;13.48;6.82;;;22.20;52.40;;;;;;5055511;28;19904;-83
2021/07/25 05:21:20;;;;;;;12.02;6.07;;;22.30;51.70;;;;;;5054983;28;20024;-81
2021/07/25 05:23:50;;;;;;;23.40;11.10;;;22.40;51.90;;;;;;5055220;28;20029;-83
2021/07/25 05:26:20;;;;;;;11.63;6.47;;;22.50;51.30;;;;;;5036480;28;20028;-81
2021/07/25 05:28:46;;;;;;;19.35;6.53;;;22.50;51.10;;;;;;5036588;28;20490;-82
2021/07/25 05:31:14;;;;;;;18.17;7.50;;;22.70;51.30;;;;;;5055202;28;20075;-82
2021/07/25 05:33:39;;;;;;;;;;;22.80;51.00;;;;;;5056163;28;20021;-82
2021/07/25 05:36:05;;;;;;;10.70;6.32;;;23.00;51.30;;;;;;5054139;28;19913;-82
2021/07/25 05:38:31;;;;;;;11.77;6.50;;;23.20;50.40;;;;;;5055304;28;20120;-83
2021/07/25 05:40:57;;;;;;;13.88;6.82;;;23.50;49.20;;;;;;5054676;28;20502;-81
2021/07/25 05:43:22;;;;;;;12.43;7.03;;;23.80;47.90;;;;;;5054293;28;20108;-82
2021/07/25 05:45:48;;;;;;;12.90;5.88;;;24.00;47.60;;;;;;5054196;28;20120;-83
2021/07/25 05:48:14;;;;;;;20.08;6.63;;;24.00;47.50;;;;;;5036130;28;20116;-82
2021/07/25 05:50:40;;;;;;;15.07;6.25;;;24.20;47.30;;;;;;5053939;28;20025;-82
2021/07/25 05:53:06;;;;;;;14.38;5.85;;;24.20;46.30;;;;;;5054166;28;20368;-86
2021/07/25 05:55:33;;;;;;;10.48;5.70;;;24.20;46.00;;;;;;5054281;28;20137;-85
2021/07/25 05:58:00;;;;;;;11.10;4.70;;;24.20;45.70;;;;;;5054937;28;20029;-85
2021/07/25 06:00:26;;;;;;;11.65;5.32;;;24.50;45.20;;;;;;5057349;28;20025;-84
2021/07/25 06:03:03;;;;;;;11.27;5.28;;;24.70;44.80;;;;;;5060783;28;20082;-85
2021/07/25 06:05:35;;;;;;;12.43;5.43;;;25.00;45.00;;;;;;5038361;28;20060;-86
2021/07/25 06:08:02;;;;;;;15.88;6.20;;;25.30;44.80;;;;;;5054393;28;20455;-84
2021/07/25 06:10:30;;;;;;;10.82;5.13;;;25.70;43.40;;;;;;5053980;28;20021;-84
2021/07/25 06:12:58;;;;;;;8.57;5.30;;;26.50;43.10;;;;;;5054534;28;20066;-84
2021/07/25 06:15:24;;;;;;;18.48;5.75;;;27.70;41.00;;;;;;5036058;28;20040;-87
2021/07/25 06:17:51;;;;;;;7.35;4.18;;;30.50;36.50;;;;;;5035483;28;20066;-83
2021/07/25 06:20:17;;;;;;;12.48;4.93;;;30.40;36.10;;;;;;5053336;28;20025;-82
2021/07/25 06:22:49;;;;;;;10.07;4.23;;;31.30;34.70;;;;;;5053058;28;20525;-83
2021/07/25 06:25:21;;;;;;;10.57;3.72;;;31.60;33.70;;;;;;5053595;28;20025;-84
2021/07/25 06:27:58;;;;;;;7.47;3.20;;;31.60;32.30;;;;;;5035427;28;20032;-83
2021/07/25 06:30:25;;;;;;;9.70;4.00;;;32.50;32.60;;;;;;5053906;28;20021;-83
2021/07/25 06:32:58;;;;;;;7.28;3.42;;;33.50;31.10;;;;;;5054519;28;20044;-86
2021/07/25 06:35:26;;;;;;;3.97;3.00;;;33.80;30.80;;;;;;5037246;28;20037;-83
2021/07/25 06:37:53;;;;;;;7.78;3.88;;;34.20;29.90;;;;;;5055034;28;20013;-83
2021/07/25 06:40:19;;;;;;;8.48;3.10;;;33.70;30.00;;;;;;5053424;28;20044;-82
2021/07/25 06:42:45;;;;;;;5.95;3.25;;;33.40;30.80;;;;;;5034023;28;20490;-83
2021/07/25 06:45:11;;;;;;;9.10;2.30;;;33.50;30.60;;;;;;5052947;28;20024;-82
2021/07/25 06:47:37;;;;;;;4.27;2.27;;;33.70;30.10;;;;;;5052552;28;20182;-83
2021/07/25 06:50:03;;;;;;;6.47;3.20;;;33.70;29.80;;;;;;5053166;28;20192;-81
2021/07/25 06:52:29;;;;;;;4.78;2.33;;;33.50;30.30;;;;;;5054698;28;20047;-85
2021/07/25 06:54:55;;;;;;;4.67;2.80;;;33.70;30.00;;;;;;5053845;28;20042;-84
2021/07/25 06:57:21;;;;;;;6.73;2.77;;;34.20;29.70;;;;;;5054805;28;20104;-84
2021/07/25 06:59:50;;;;;;;6.77;2.87;;;33.70;29.50;;;;;;5055150;28;20028;-85
2021/07/25 07:02:15;;;;;;;5.70;2.92;;;33.10;30.30;;;;;;5053355;28;20482;-83
2021/07/25 07:04:41;;;;;;;2.57;2.03;;;33.00;30.40;;;;;;5053050;28;20020;-83
2021/07/25 07:07:07;;;;;;;6.40;2.63;;;32.80;29.90;;;;;;5052769;28;20394;-84
2021/07/25 07:09:33;;;;;;;6.30;2.33;;;32.20;30.80;;;;;;5053089;28;20017;-84
2021/07/25 07:11:59;;;;;;;9.50;3.30;;;31.60;31.90;;;;;;5052855;28;20029;-85
2021/07/25 07:14:25;;;;;;;9.13;2.87;;;32.80;31.60;;;;;;5055314;28;20021;-83
2021/07/25 07:16:50;;;;;;;5.33;2.70;;;34.10;29.90;;;;;;5053372;28;20348;-85
2021/07/25 07:19:16;;;;;;;6.07;2.40;;;34.50;29.30;;;;;;5053200;28;20025;-83
2021/07/25 07:21:42;;;;;;;6.67;2.40;;;34.80;29.20;;;;;;5053744;28;20025;-84
2021/07/25 07:24:08;;;;;;;5.07;1.77;;;35.20;29.00;;;;;;5052945;28;20351;-85
2021/07/25 07:26:34;;;;;;;6.33;1.77;;;35.40;28.00;;;;;;5053514;28;20386;-83
2021/07/25 07:28:59;;;;;;;4.50;1.87;;;35.70;28.20;;;;;;5053533;28;20017;-83
2021/07/25 07:31:25;;;;;;;4.53;1.80;;;36.30;27.90;;;;;;5036971;28;20040;-84
2021/07/25 07:33:54;;;;;;;6.68;2.45;;;37.20;27.50;;;;;;5054202;28;20270;-83
2021/07/25 07:36:20;;;;;;;3.85;2.15;;;37.90;27.10;;;;;;5052926;28;20072;-85
2021/07/25 07:38:46;;;;;;;3.70;1.50;;;39.10;26.40;;;;;;5053771;28;20017;-84
2021/07/25 07:41:12;;;;;;;2.92;1.85;;;40.10;25.90;;;;;;5052701;28;20033;-82
2021/07/25 07:43:38;;;;;;;1.85;1.45;;;40.80;25.30;;;;;;5053000;28;20097;-83
2021/07/25 07:46:03;;;;;;;;;;;40.90;25.20;;;;;;5034682;28;20082;-83
2021/07/25 07:48:29;;;;;;;5.00;1.73;;;40.90;26.00;;;;;;5051856;28;19917;-84
2021/07/25 07:50:55;;;;;;;4.88;1.80;;;41.00;25.10;;;;;;5052368;28;20517;-83
2021/07/25 07:53:21;;;;;;;2.63;1.45;;;41.00;24.60;;;;;;5045607;28;20021;-84
2021/07/25 07:55:48;;;;;;;3.85;1.67;;;41.00;24.70;;;;;;5051889;28;20055;-84
2021/07/25 07:58:14;;;;;;;2.35;1.65;;;41.20;24.50;;;;;;5051988;28;20017;-83
2021/07/25 08:00:40;;;;;;;3.28;1.40;;;41.40;24.70;;;;;;5052405;28;20096;-83
2021/07/25 08:03:06;;;;;;;1.55;1.40;;;41.90;24.50;;;;;;5034490;28;20082;-85
2021/07/25 08:05:32;;;;;;;4.68;1.80;;;42.10;24.20;;;;;;5051889;28;20033;-84
2021/07/25 08:07:58;;;;;;;2.58;1.75;;;41.60;24.20;;;;;;5053919;28;20032;-86
2021/07/25 08:10:24;;;;;;;5.20;2.50;;;40.80;24.50;;;;;;5050792;28;20097;-86
2021/07/25 08:12:50;;;;;;;5.32;1.95;;;38.50;25.50;;;;;;5053115;28;20494;-84
2021/07/25 08:15:18;;;;;;;4.15;1.95;;;36.60;26.10;;;;;;5052117;28;20036;-84
2021/07/25 08:17:44;;;;;;;4.00;2.47;;;35.00;27.70;;;;;;5053756;28;21218;-84
2021/07/25 08:20:10;;;;;;;2.57;1.77;;;33.50;28.10;;;;;;5054326;28;20099;-85
2021/07/25 08:22:36;;;;;;;4.20;1.70;;;33.00;29.20;;;;;;5051784;28;20338;-83
2021/07/25 08:25:06;;;;;;;4.28;1.98;;;34.60;28.60;;;;;;5048718;28;20064;-81
2021/07/25 08:27:32;;;;;;;4.97;2.00;;;36.50;27.40;;;;;;5050248;28;20025;-83
2021/07/25 08:29:58;;;;;;;2.75;1.88;;;36.50;27.10;;;;;;5046009;28;20091;-82
2021/07/25 08:32:24;;;;;;;2.53;1.90;;;35.40;27.30;;;;;;5051542;28;20059;-82
2021/07/25 08:34:50;;;;;;;3.13;2.20;;;34.60;28.10;;;;;;5053076;28;20060;-83
2021/07/25 08:37:16;;;;;;;3.50;2.13;;;33.90;28.70;;;;;;5057401;28;20052;-83
2021/07/25 08:39:41;;;;;;;4.07;2.07;;;33.30;28.80;;;;;;5057378;28;20021;-85
2021/07/25 08:42:11;;;;;;;5.57;2.10;;;32.20;29.30;;;;;;5038152;28;20546;-85
2021/07/25 08:44:48;;;;;;;3.25;1.85;;;32.00;29.80;;;;;;5055505;28;20478;-83
2021/07/25 08:47:20;;;;;;;4.43;2.10;;;31.90;29.80;;;;;;5041232;28;20067;-84
2021/07/25 08:49:52;;;;;;;4.72;1.80;;;31.80;29.90;;;;;;5058129;28;20025;-82
2021/07/25 08:52:20;;;;;;;3.65;1.90;;;32.50;30.00;;;;;;5054535;28;20099;-83
2021/07/25 08:54:46;;;;;;;8.07;3.95;;;34.40;29.20;;;;;;5055569;28;20040;-82
2021/07/25 08:57:18;;;;;;;2.40;1.63;;;36.40;28.20;;;;;;5054877;28;20033;-83
2021/07/25 08:59:47;;;;;;;4.60;2.58;;;36.00;26.80;;;;;;5054421;28;20028;-84
2021/07/25 09:02:32;;;;;;;2.55;1.52;;;34.70;27.40;;;;;;5054704;28;20031;-85
2021/07/25 09:04:59;;;;;;;2.95;1.83;;;32.80;28.20;;;;;;5053115;28;20021;-87
2021/07/25 09:07:28;;;;;;;;;;;30.90;29.70;;;;;;5058723;28;20071;-83
2021/07/25 09:10:04;;;;;;;4.05;1.85;;;29.40;30.00;;;;;;5061012;28;19908;-93
2021/07/25 09:12:31;;;;;;;4.55;1.92;;;28.20;33.30;;;;;;5041185;28;20025;-88
2021/07/25 09:15:01;;;;;;;1.85;1.38;;;27.20;33.90;;;;;;5053918;28;20044;-85
2021/07/25 09:17:27;;;;;;;5.90;1.98;;;26.50;35.10;;;;;;5057276;28;20081;-89
2021/07/25 09:20:14;;;;;;;4.20;2.05;;;26.10;36.00;;;;;;5057841;28;20024;-90
2021/07/25 09:23:06;;;;;;;4.85;2.10;;;25.90;36.20;;;;;;5056485;28;20041;-83
2021/07/25 09:25:43;;;;;;;3.47;2.00;;;25.50;36.50;;;;;;5059682;28;20021;-89
2021/07/25 09:28:18;;;;;;;4.38;1.70;;;25.20;38.00;;;;;;5043951;28;20047;-85
2021/07/25 09:30:44;;;;;;;3.17;1.77;;;25.10;38.40;;;;;;5038016;28;20020;-86
2021/07/25 09:33:30;;;;;;;5.05;2.17;;;24.90;38.90;;;;;;5038889;28;20028;-87
2021/07/25 09:36:22;;;;;;;6.28;2.20;;;24.80;39.00;;;;;;5044158;28;20048;-88
2021/07/25 09:38:49;;;;;;;4.15;2.13;;;24.90;39.20;;;;;;5049988;28;20224;-91
2021/07/25 09:41:19;;;;;;;4.72;2.33;;;24.90;39.50;;;;;;5040940;28;20135;-90
2021/07/25 09:44:12;;;;;;;7.05;2.47;;;24.80;39.50;;;;;;5040498;28;20029;-88
2021/07/25 09:46:49;;;;;;;3.33;1.98;;;24.80;39.70;;;;;;5056011;28;20061;-86
2021/07/25 09:49:17;;;;;;;4.18;2.00;;;24.80;39.70;;;;;;5047327;28;20049;-87
2021/07/25 09:51:43;;;;;;;2.63;2.05;;;24.90;40.50;;;;;;5053729;28;20016;-87
2021/07/25 09:54:10;;;;;;;10.35;1.88;;;25.20;40.00;;;;;;5069478;28;20029;-87
2021/07/25 09:56:36;;;;;;;5.93;2.50;;;26.00;39.10;;;;;;5066242;28;20037;-87
2021/07/25 09:59:02;;;;;;;5.78;2.22;;;27.00;38.10;;;;;;5055597;28;20048;-86
2021/07/25 10:01:44;;;;;;;8.18;1.73;;;28.20;36.30;;;;;;5047600;28;20026;-85
2021/07/25 10:04:23;;;;;;;2.95;1.60;;;30.00;34.20;;;;;;5054485;28;20109;-83
2021/07/25 10:06:54;;;;;;;2.55;1.55;;;30.70;32.70;;;;;;5054019;28;20451;-85
2021/07/25 10:09:22;;;;;;;6.65;1.73;;;30.90;32.30;;;;;;5055227;28;20021;-84
2021/07/25 10:11:58;;;;;;;7.72;1.70;;;30.70;31.60;;;;;;5033429;28;20021;-84
2021/07/25 10:14:25;;;;;;;3.22;2.10;;;30.00;31.90;;;;;;5053828;28;20021;-84
2021/07/25 10:16:52;;;;;;;7.80;1.85;;;29.60;32.90;;;;;;5057937;28;20037;-85
2021/07/25 10:19:42;;;;;;;2.50;1.65;;;29.20;33.30;;;;;;5040941;28;20056;-86
2021/07/25 10:22:12;;;;;;;3.42;1.63;;;28.80;33.60;;;;;;5057543;28;20075;-83
2021/07/25 10:24:41;;;;;;;3.90;2.30;;;28.50;34.70;;;;;;5057179;28;20025;-87
2021/07/25 10:27:07;;;;;;;4.28;2.75;;;28.30;34.30;;;;;;5068124;28;20020;-84
2021/07/25 10:29:36;;;;;;;5.18;2.90;;;28.10;34.30;;;;;;5058959;28;20017;-86
2021/07/25 10:32:03;;;;;;;5.00;3.53;;;27.70;35.00;;;;;;5040399;28;20033;-86
2021/07/25 10:34:31;;;;;;;4.15;2.08;;;27.30;35.20;;;;;;5038588;28;20021;-85
2021/07/25 10:36:57;;;;;;;2.97;1.60;;;27.00;36.10;;;;;;5055134;28;20037;-87
2021/07/25 10:39:25;;;;;;;3.40;1.80;;;26.70;35.70;;;;;;5061783;28;20021;-82
2021/07/25 10:41:57;;;;;;;3.38;1.80;;;26.40;36.30;;;;;;5052135;28;20440;-82
2021/07/25 10:44:23;;;;;;;3.08;1.92;;;26.20;37.20;;;;;;5047618;28;20398;-81
2021/07/25 10:46:49;;;;;;;4.95;2.05;;;26.20;37.40;;;;;;5055004;28;20035;-84
2021/07/25 10:49:17;;;;;;;3.33;1.73;;;26.30;37.50;;;;;;5054701;28;20048;-83
2021/07/25 10:52:00;;;;;;;4.53;1.83;;;26.30;37.60;;;;;;5053855;28;20100;-81
2021/07/25 10:54:26;;;;;;;2.42;1.50;;;26.50;37.00;;;;;;5041366;28;20036;-81
2021/07/25 10:57:02;;;;;;;4.78;1.50;;;26.60;36.20;;;;;;5038576;28;20029;-83
2021/07/25 10:59:48;;;;;;;2.65;1.55;;;26.70;35.70;;;;;;5040248;28;20022;-83
2021/07/25 11:02:51;;;;;;;3.33;1.50;;;26.90;35.60;;;;;;5030427;28;20041;-82
2021/07/25 11:05:18;;;;;;;3.03;1.70;;;27.10;34.90;;;;;;5054971;28;20066;-82
2021/07/25 11:07:57;;;;;;;3.08;1.48;;;27.40;34.10;;;;;;5035465;28;20033;-83
2021/07/25 11:10:33;;;;;;;2.58;1.55;;;27.60;34.00;;;;;;5058509;28;20025;-84
2021/07/25 11:13:02;;;;;;;2.85;1.50;;;27.60;34.60;;;;;;5050271;28;20482;-83
2021/07/25 11:15:32;;;;;;;2.22;1.33;;;27.60;34.30;;;;;;5030617;28;20041;-84
2021/07/25 11:18:26;;;;;;;4.13;2.00;;;27.50;34.50;;;;;;5056681;28;20108;-84
2021/07/25 11:21:03;;;;;;;4.65;1.70;;;27.20;35.10;;;;;;5055794;28;20033;-83
2021/07/25 11:23:35;;;;;;;4.30;1.80;;;26.80;36.00;;;;;;5059522;28;20336;-83
2021/07/25 11:26:34;;;;;;;4.32;2.10;;;26.60;36.30;;;;;;5039426;28;20588;-82
2021/07/25 11:29:03;;;;;;;7.18;2.10;;;26.40;37.20;;;;;;5053676;28;20466;-86
2021/07/25 11:31:40;;;;;;;5.05;2.17;;;26.30;37.80;;;;;;5053602;28;20021;-86
2021/07/25 11:34:14;;;;;;;4.50;1.85;;;26.20;38.00;;;;;;5043383;28;20398;-84
2021/07/25 11:36:43;;;;;;;8.60;2.58;;;26.30;37.70;;;;;;5048437;28;20029;-84
2021/07/25 11:39:12;;;;;;;3.17;1.80;;;26.40;37.60;;;;;;5029254;28;20025;-85
2021/07/25 11:41:39;;;;;;;3.13;1.98;;;26.30;37.70;;;;;;5052047;28;20014;-84
2021/07/25 11:44:05;;;;;;;5.82;2.55;;;26.30;37.80;;;;;;5060955;28;20088;-88
2021/07/25 11:46:51;;;;;;;3.47;2.47;;;26.70;37.40;;;;;;5043801;28;20036;-85
2021/07/25 11:49:21;;;;;;;7.93;3.60;;;27.00;36.90;;;;;;5032148;28;20137;-89
2021/07/25 11:52:10;;;;;;;3.10;2.03;;;27.00;36.80;;;;;;5021218;28;20057;-90
2021/07/25 11:54:42;;;;;;;3.53;1.80;;;26.90;36.80;;;;;;5025618;28;20499;-90
2021/07/25 11:57:14;;;;;;;4.93;1.98;;;26.60;37.00;;;;;;5023208;28;20117;-92
2021/07/25 11:59:59;;;;;;;7.90;2.75;;;26.40;37.20;;;;;;5014503;28;20022;-89
2021/07/25 12:02:30;;;;;;;3.30;1.60;;;26.20;37.60;;;;;;5020831;28;20045;-87
2021/07/25 12:04:59;;;;;;;6.78;1.95;;;26.20;37.70;;;;;;5018485;28;20022;-88
2021/07/25 12:07:33;;;;;;;3.92;2.10;;;26.10;38.00;;;;;;5018932;28;20022;-91
2021/07/25 12:10:03;;;;;;;5.07;2.10;;;26.00;37.60;;;;;;5023309;28;20026;-91
2021/07/25 12:12:36;;;;;;;6.70;2.70;;;25.90;37.20;;;;;;5003473;28;20056;-84
2021/07/25 12:15:04;;;;;;;3.72;2.33;;;25.50;37.20;;;;;;5018899;28;20022;-87
2021/07/25 12:17:47;;;;;;;4.28;2.50;;;25.30;37.60;;;;;;5019795;28;20436;-87
2021/07/25 12:20:16;;;;;;;4.95;2.83;;;25.30;37.90;;;;;;5024676;28;20026;-88
2021/07/25 12:23:00;;;;;;;2.22;1.73;;;25.30;38.20;;;;;;5024342;28;20025;-89
2021/07/25 12:25:37;;;;;;;2.28;1.58;;;25.50;37.50;;;;;;5018706;28;20033;-84
2021/07/25 12:28:08;;;;;;;4.88;1.70;;;25.60;37.00;;;;;;5017855;28;20045;-86
2021/07/25 12:30:50;;;;;;;2.47;1.40;;;25.70;37.30;;;;;;5019903;28;20032;-85
2021/07/25 12:33:31;;;;;;;9.52;1.70;;;25.80;37.60;;;;;;5006594;28;20049;-82
2021/07/25 12:36:10;;;;;;;4.15;1.50;;;25.80;37.00;;;;;;5018833;28;20092;-87
2021/07/25 12:38:36;;;;;;;3.30;2.47;;;25.70;37.20;;;;;;5018255;28;20033;-86
2021/07/25 12:41:03;;;;;;;4.75;2.95;;;25.60;37.40;;;;;;5017846;28;20022;-85
2021/07/25 12:43:30;;;;;;;3.63;2.00;;;25.60;38.20;;;;;;5005122;28;20018;-86
2021/07/25 12:46:00;;;;;;;7.93;6.03;;;25.60;37.70;;;;;;5022305;28;20033;-88
2021/07/25 12:48:35;;;;;;;8.05;3.15;;;25.70;37.70;;;;;;5043456;28;20044;-86
2021/07/25 12:53:53;;;;;;;2.88;1.58;;;25.60;36.70;;;;;;5064036;28;20049;-87
2021/07/25 12:56:19;;;;;;;3.88;2.15;;;25.40;37.10;;;;;;5040319;28;20096;-85
2021/07/25 12:58:48;;;;;;;5.13;1.85;;;25.40;37.30;;;;;;5039992;28;20055;-84